createdAt,value
2019-04-29T00:00:53.040Z,94787.95
2019-04-29T00:03:22.531Z,94783.28
2019-04-29T00:05:51.963Z,94783.98
2019-04-29T00:08:21.420Z,94787.95
2019-04-29T00:10:50.834Z,94784.85
2019-04-29T00:13:20.419Z,94788.59
2019-04-29T00:16:17.864Z,94783.23
2019-04-29T00:19:04.885Z,94783.34
2019-04-29T00:21:34.373Z,94777.70
2019-04-29T00:24:04.407Z,94778.45
2019-04-29T00:26:33.894Z,94776.58
2019-04-29T00:29:03.323Z,94765.41
2019-04-29T00:31:32.739Z,94758.70
2019-04-29T00:34:02.167Z,94766.16
2019-04-29T00:36:36.664Z,94758.88
2019-04-29T00:39:25.644Z,94759.73
2019-04-29T00:42:10.396Z,94751.89
2019-04-29T00:44:39.817Z,94757.19
2019-04-29T00:47:09.246Z,94760.20
2019-04-29T00:49:38.652Z,94754.79
2019-04-29T00:52:08.165Z,94743.53
2019-04-29T00:55:01.838Z,94748.14
2019-04-29T00:57:31.252Z,94757.30
2019-04-29T01:00:00.647Z,94758.12
2019-04-29T01:02:30.092Z,94756.13
2019-04-29T01:04:59.530Z,94748.89
2019-04-29T01:07:28.955Z,94750.98
2019-04-29T01:09:58.354Z,94753.17
2019-04-29T01:12:27.752Z,94749.42
2019-04-29T01:14:57.185Z,94747.50
2019-04-29T01:17:27.358Z,94749.95
2019-04-29T01:19:56.772Z,94751.83
2019-04-29T01:22:26.200Z,94747.94
2019-04-29T01:24:55.625Z,94743.36
2019-04-29T01:27:29.686Z,94745.52
2019-04-29T01:29:59.108Z,94738.53
2019-04-29T01:32:28.607Z,94741.09
2019-04-29T01:34:58.045Z,94734.52
2019-04-29T01:37:37.144Z,94733.45
2019-04-29T01:40:16.642Z,94740.43
2019-04-29T01:42:46.052Z,94736.66
2019-04-29T01:45:15.474Z,94737.19
2019-04-29T01:47:44.893Z,94723.20
2019-04-29T01:50:14.298Z,94724.76
2019-04-29T01:52:43.713Z,94729.70
2019-04-29T01:55:13.163Z,94719.98
2019-04-29T01:57:42.571Z,94714.84
2019-04-29T02:00:12.597Z,94716.02
2019-04-29T02:02:42.072Z,94714.68
2019-04-29T02:05:11.519Z,94723.78
2019-04-29T02:07:40.924Z,94722.95
2019-04-29T02:10:25.749Z,94723.00
2019-04-29T02:12:55.171Z,94723.48
2019-04-29T02:15:24.608Z,94721.27
2019-04-29T02:17:54.033Z,94716.05
2019-04-29T02:20:23.442Z,94728.62
2019-04-29T02:23:15.737Z,94727.80
2019-04-29T02:25:45.808Z,94724.88
2019-04-29T02:28:15.235Z,94727.83
2019-04-29T02:30:46.533Z,94726.80
2019-04-29T02:33:15.940Z,94731.52
2019-04-29T02:35:45.361Z,94728.03
2019-04-29T02:38:28.890Z,94719.39
2019-04-29T02:41:08.088Z,94724.81
2019-04-29T02:43:39.085Z,94723.20
2019-04-29T02:46:08.493Z,94722.19
2019-04-29T02:48:37.898Z,94722.95
2019-04-29T02:51:07.304Z,94724.34
2019-04-29T02:53:36.753Z,94729.42
2019-04-29T02:56:06.168Z,94725.15
2019-04-29T02:58:50.553Z,94724.34
2019-04-29T03:01:53.992Z,94731.63
2019-04-29T03:04:25.743Z,94736.94
2019-04-29T03:06:55.197Z,94734.67
2019-04-29T03:09:24.600Z,94728.25
2019-04-29T03:11:53.998Z,94730.66
2019-04-29T03:14:23.408Z,94727.27
2019-04-29T03:16:52.838Z,94726.75
2019-04-29T03:19:27.761Z,94725.41
2019-04-29T03:21:58.804Z,94724.59
2019-04-29T03:24:28.253Z,94727.80
2019-04-29T03:26:57.671Z,94728.62
2019-04-29T03:29:27.088Z,94736.13
2019-04-29T03:31:58.009Z,94746.80
2019-04-29T03:34:27.458Z,94732.39
2019-04-29T03:36:56.861Z,94747.38
2019-04-29T03:39:26.289Z,94761.48
2019-04-29T03:41:55.705Z,94744.59
2019-04-29T03:44:25.101Z,94744.11
2019-04-29T03:46:54.496Z,94750.01
2019-04-29T03:49:23.981Z,94736.07
2019-04-29T03:51:53.412Z,94743.05
2019-04-29T03:54:22.822Z,94759.51
2019-04-29T03:56:52.237Z,94765.95
2019-04-29T03:59:21.648Z,94754.14
2019-04-29T04:02:12.940Z,94753.55
2019-04-29T04:04:59.557Z,94757.19
2019-04-29T04:07:43.888Z,94750.83
2019-04-29T04:10:13.259Z,94759.34
2019-04-29T04:12:42.691Z,94765.73
2019-04-29T04:15:12.142Z,94769.76
2019-04-29T04:17:47.062Z,94766.70
2019-04-29T04:20:16.542Z,94768.89
2019-04-29T04:22:49.182Z,94768.24
2019-04-29T04:25:18.657Z,94765.73
2019-04-29T04:27:48.105Z,94754.70
2019-04-29T04:30:17.693Z,94752.42
2019-04-29T04:32:47.119Z,94754.63
2019-04-29T04:35:16.747Z,94751.27
2019-04-29T04:37:46.165Z,94752.86
2019-04-29T04:40:18.498Z,94758.59
2019-04-29T04:42:47.915Z,94760.20
2019-04-29T04:45:17.331Z,94760.55
2019-04-29T04:47:46.734Z,94759.52
2019-04-29T04:50:16.868Z,94765.21
2019-04-29T04:52:46.261Z,94756.05
2019-04-29T04:55:15.679Z,94752.00
2019-04-29T04:57:45.094Z,94752.55
2019-04-29T05:00:21.882Z,94753.37
2019-04-29T05:02:51.292Z,94753.62
2019-04-29T05:05:20.709Z,94747.98
2019-04-29T05:07:50.117Z,94745.32
2019-04-29T05:10:19.544Z,94741.27
2019-04-29T05:12:48.950Z,94746.72
2019-04-29T05:15:18.378Z,94747.58
2019-04-29T05:17:47.808Z,94749.98
2019-04-29T05:20:17.224Z,94749.70
2019-04-29T05:23:01.797Z,94746.44
2019-04-29T05:25:32.041Z,94747.84
2019-04-29T05:28:01.504Z,94745.38
2019-04-29T05:30:30.905Z,94746.83
2019-04-29T05:33:00.313Z,94738.98
2019-04-29T05:35:51.348Z,94742.22
2019-04-29T05:38:34.364Z,94742.27
2019-04-29T05:41:03.784Z,94741.52
2019-04-29T05:43:52.043Z,94740.70
2019-04-29T05:46:49.388Z,94740.98
2019-04-29T05:49:23.492Z,94748.28
2019-04-29T05:52:16.157Z,94747.16
2019-04-29T05:54:45.599Z,94753.37
2019-04-29T05:57:14.997Z,94744.78
2019-04-29T05:59:47.846Z,94747.22
2019-04-29T06:02:15.604Z,94742.44
2019-04-29T06:04:48.150Z,94741.63
2019-04-29T06:07:16.864Z,94742.44
2019-04-29T06:09:47.290Z,94741.58
2019-04-29T06:12:16.698Z,94748.28
2019-04-29T06:14:46.130Z,94746.35
2019-04-29T06:17:15.535Z,94745.59
2019-04-29T06:19:44.939Z,94745.01
2019-04-29T06:22:14.371Z,94746.41
2019-04-29T06:24:43.786Z,94743.98
2019-04-29T06:27:13.209Z,94745.12
2019-04-29T06:29:42.600Z,94751.23
2019-04-29T06:32:12.033Z,94747.16
2019-04-29T06:34:41.825Z,94746.83
2019-04-29T06:37:11.281Z,94743.81
2019-04-29T06:39:40.694Z,94746.83
2019-04-29T06:42:10.108Z,94743.81
2019-04-29T06:44:39.524Z,94745.27
2019-04-29T06:47:09.242Z,94737.92
2019-04-29T06:49:38.644Z,94736.52
2019-04-29T06:52:08.065Z,94733.03
2019-04-29T06:54:37.499Z,94730.62
2019-04-29T06:57:06.916Z,94727.44
2019-04-29T06:59:36.335Z,94723.22
2019-04-29T07:02:09.351Z,94721.34
2019-04-29T07:04:39.588Z,94724.56
2019-04-29T07:07:08.054Z,94723.37
2019-04-29T07:09:37.467Z,94724.51
2019-04-29T07:12:08.243Z,94727.47
2019-04-29T07:14:38.704Z,94724.09
2019-04-29T07:17:08.227Z,94720.34
2019-04-29T07:19:37.626Z,94723.27
2019-04-29T07:22:07.035Z,94725.15
2019-04-29T07:24:36.475Z,94716.31
2019-04-29T07:27:05.892Z,94719.14
2019-04-29T07:29:37.937Z,94714.90
2019-04-29T07:32:09.482Z,94718.34
2019-04-29T07:34:39.642Z,94714.31
2019-04-29T07:37:08.734Z,94724.98
2019-04-29T07:39:38.147Z,94720.09
2019-04-29T07:42:07.597Z,94723.45
2019-04-29T07:44:48.842Z,94722.47
2019-04-29T07:47:17.285Z,94720.77
2019-04-29T07:49:47.296Z,94721.07
2019-04-29T07:52:17.836Z,94712.49
2019-04-29T07:54:48.195Z,94706.06
2019-04-29T07:57:18.372Z,94710.40
2019-04-29T07:59:47.815Z,94707.02
2019-04-29T08:02:17.227Z,94711.30
2019-04-29T08:04:46.645Z,94705.45
2019-04-29T08:07:16.059Z,94699.17
2019-04-29T08:09:45.483Z,94702.55
2019-04-29T08:12:14.897Z,94703.73
2019-04-29T08:14:44.494Z,94704.77
2019-04-29T08:17:13.939Z,94705.30
2019-04-29T08:19:43.375Z,94701.39
2019-04-29T08:22:15.456Z,94697.47
2019-04-29T08:24:45.952Z,94693.12
2019-04-29T08:27:15.064Z,94693.98
2019-04-29T08:29:44.487Z,94695.38
2019-04-29T08:32:13.926Z,94697.47
2019-04-29T08:34:43.360Z,94694.79
2019-04-29T08:37:12.747Z,94692.42
2019-04-29T08:39:42.220Z,94689.63
2019-04-29T08:42:14.657Z,94691.66
2019-04-29T08:45:01.836Z,94687.16
2019-04-29T08:47:33.162Z,94685.23
2019-04-29T08:50:02.585Z,94671.14
2019-04-29T08:52:31.994Z,94668.45
2019-04-29T08:55:01.440Z,94665.76
2019-04-29T08:57:31.815Z,94663.51
2019-04-29T09:00:02.063Z,94662.34
2019-04-29T09:02:34.975Z,94657.84
2019-04-29T09:05:02.623Z,94656.39
2019-04-29T09:07:32.043Z,94650.17
2019-04-29T09:10:03.560Z,94654.60
2019-04-29T09:12:32.619Z,94655.95
2019-04-29T09:15:02.045Z,94654.02
2019-04-29T09:17:31.456Z,94647.59
2019-04-29T09:20:00.872Z,94646.98
2019-04-29T09:22:32.199Z,94642.13
2019-04-29T09:25:21.536Z,94637.07
2019-04-29T09:27:51.035Z,94635.73
2019-04-29T09:30:20.455Z,94631.70
2019-04-29T09:32:49.869Z,94632.73
2019-04-29T09:35:19.285Z,94630.16
2019-04-29T09:37:48.703Z,94630.92
2019-04-29T09:40:20.135Z,94628.22
2019-04-29T09:42:59.731Z,94622.75
2019-04-29T09:45:43.024Z,94617.23
2019-04-29T09:48:12.426Z,94618.04
2019-04-29T09:50:41.835Z,94613.84
2019-04-29T09:53:11.274Z,94611.38
2019-04-29T09:55:41.306Z,94605.92
2019-04-29T09:58:10.801Z,94595.83
2019-04-29T10:01:18.629Z,94595.06
2019-04-29T10:04:06.684Z,94591.27
2019-04-29T10:06:37.467Z,94587.34
2019-04-29T10:09:09.611Z,94588.91
2019-04-29T10:11:39.024Z,94585.47
2019-04-29T10:14:08.685Z,94577.74
2019-04-29T10:16:59.396Z,94575.64
2019-04-29T10:19:37.686Z,94578.33
2019-04-29T10:22:07.126Z,94573.72
2019-04-29T10:24:36.526Z,94572.38
2019-04-29T10:27:07.275Z,94570.05
2019-04-29T10:29:37.399Z,94565.19
2019-04-29T10:32:08.689Z,94566.03
2019-04-29T10:34:38.055Z,94565.28
2019-04-29T10:37:07.517Z,94564.29
2019-04-29T10:40:11.318Z,94558.80
2019-04-29T10:42:44.712Z,94556.30
2019-04-29T10:45:31.227Z,94554.69
2019-04-29T10:48:18.646Z,94555.70
2019-04-29T10:50:51.995Z,94542.25
2019-04-29T10:53:19.245Z,94533.66
2019-04-29T10:55:48.664Z,94535.09
2019-04-29T10:58:22.483Z,94535.09
2019-04-29T11:02:01.657Z,94541.36
2019-04-29T11:04:31.699Z,94534.61
2019-04-29T11:07:13.550Z,94524.69
2019-04-29T11:09:46.403Z,94519.98
2019-04-29T11:12:17.811Z,94516.23
2019-04-29T11:14:47.455Z,94516.45
2019-04-29T11:17:17.000Z,94510.46
2019-04-29T11:19:46.393Z,94510.05
2019-04-29T11:22:17.437Z,94506.08
2019-04-29T11:25:08.492Z,94507.41
2019-04-29T11:27:45.802Z,94498.66
2019-04-29T11:30:18.421Z,94497.49
2019-04-29T11:32:52.056Z,94496.47
2019-04-29T11:35:44.434Z,94500.75
2019-04-29T11:38:13.962Z,94502.09
2019-04-29T11:40:44.509Z,94502.23
2019-04-29T11:43:15.596Z,94498.84
2019-04-29T11:45:46.176Z,94495.48
2019-04-29T11:48:15.664Z,94494.10
2019-04-29T11:51:06.984Z,94492.49
2019-04-29T11:53:36.466Z,94493.70
2019-04-29T11:56:05.977Z,94482.48
2019-04-29T11:58:42.347Z,94481.80
2019-04-29T12:01:20.627Z,94475.17
2019-04-29T12:03:51.509Z,94470.65
2019-04-29T12:06:21.873Z,94462.74
2019-04-29T12:08:53.156Z,94460.82
2019-04-29T12:11:22.640Z,94456.80
2019-04-29T12:14:16.081Z,94451.44
2019-04-29T12:16:49.106Z,94454.97
2019-04-29T12:19:22.610Z,94444.44
2019-04-29T12:21:51.984Z,94442.84
2019-04-29T12:24:21.426Z,94437.82
2019-04-29T12:26:50.855Z,94440.09
2019-04-29T12:29:20.384Z,94441.44
2019-04-29T12:32:07.121Z,94436.56
2019-04-29T12:34:58.546Z,94428.67
2019-04-29T12:37:46.790Z,94424.65
2019-04-29T12:40:35.071Z,94419.11
2019-04-29T12:43:38.233Z,94419.42
2019-04-29T12:46:44.305Z,94418.80
2019-04-29T12:49:14.221Z,94408.45
2019-04-29T12:51:46.652Z,94407.30
2019-04-29T12:54:17.113Z,94410.33
2019-04-29T12:56:48.032Z,94399.70
2019-04-29T12:59:18.368Z,94407.72
2019-04-29T13:02:26.325Z,94408.25
2019-04-29T13:05:09.726Z,94405.67
2019-04-29T13:08:00.817Z,94403.62
2019-04-29T13:10:55.224Z,94399.97
2019-04-29T13:13:24.735Z,94390.06
2019-04-29T13:16:13.013Z,94385.73
2019-04-29T13:19:12.433Z,94383.85
2019-04-29T13:21:39.467Z,94388.39
2019-04-29T13:24:18.293Z,94392.95
2019-04-29T13:26:42.987Z,94390.77
2019-04-29T13:29:26.004Z,94381.67
2019-04-29T13:31:42.596Z,94388.72
2019-04-29T13:34:24.331Z,94379.36
2019-04-29T13:36:57.489Z,94375.97
2019-04-29T13:39:17.605Z,94378.65
2019-04-29T13:41:56.896Z,94372.98
2019-04-29T13:44:19.734Z,94372.71
2019-04-29T13:47:06.988Z,94370.33
2019-04-29T13:49:42.944Z,94368.98
2019-04-29T13:52:12.941Z,94374.66
2019-04-29T13:54:44.245Z,94366.15
2019-04-29T13:57:16.278Z,94367.97
2019-04-29T13:59:51.913Z,94364.48
2019-04-29T14:02:33.378Z,94363.11
2019-04-29T14:05:03.737Z,94359.34
2019-04-29T14:07:33.159Z,94360.75
2019-04-29T14:10:02.570Z,94363.64
2019-04-29T14:12:49.381Z,94356.72
2019-04-29T14:15:03.211Z,94355.59
2019-04-29T14:17:35.604Z,94357.23
2019-04-29T14:20:03.793Z,94353.20
2019-04-29T14:22:33.205Z,94355.65
2019-04-29T14:25:02.631Z,94344.39
2019-04-29T14:27:32.042Z,94350.03
2019-04-29T14:30:02.991Z,94347.05
2019-04-29T14:32:36.002Z,94345.65
2019-04-29T14:35:25.394Z,94348.63
2019-04-29T14:37:59.952Z,94350.55
2019-04-29T14:40:25.952Z,94337.98
2019-04-29T14:43:26.835Z,94347.33
2019-04-29T14:45:54.763Z,94349.02
2019-04-29T14:48:41.587Z,94343.91
2019-04-29T14:51:00.251Z,94342.09
2019-04-29T14:53:29.698Z,94338.69
2019-04-29T14:55:59.134Z,94336.66
2019-04-29T14:58:28.542Z,94342.01
2019-04-29T15:01:14.274Z,94341.11
2019-04-29T15:04:17.222Z,94336.84
2019-04-29T15:06:34.822Z,94333.00
2019-04-29T15:09:05.029Z,94332.28
2019-04-29T15:11:45.135Z,94335.50
2019-04-29T15:14:47.689Z,94340.58
2019-04-29T15:17:50.949Z,94337.92
2019-04-29T15:20:39.677Z,94333.92
2019-04-29T15:23:09.106Z,94333.39
2019-04-29T15:25:39.531Z,94336.05
2019-04-29T15:28:09.028Z,94332.46
2019-04-29T15:30:38.746Z,94331.12
2019-04-29T15:33:08.809Z,94329.56
2019-04-29T15:35:38.590Z,94333.27
2019-04-29T15:38:08.007Z,94330.58
2019-04-29T15:40:42.860Z,94330.61
2019-04-29T15:43:08.848Z,94328.22
2019-04-29T15:45:40.570Z,94328.20
2019-04-29T15:48:09.542Z,94332.79
2019-04-29T15:50:39.152Z,94328.46
2019-04-29T15:53:08.601Z,94327.12
2019-04-29T15:55:39.602Z,94324.20
2019-04-29T15:58:09.330Z,94322.34
2019-04-29T16:00:40.607Z,94315.39
2019-04-29T16:03:12.602Z,94318.34
2019-04-29T16:06:19.680Z,94320.22
2019-04-29T16:08:42.474Z,94315.41
2019-04-29T16:11:34.656Z,94313.21
2019-04-29T16:14:09.388Z,94311.55
2019-04-29T16:16:36.560Z,94309.94
2019-04-29T16:19:08.472Z,94316.11
2019-04-29T16:21:39.511Z,94318.80
2019-04-29T16:24:24.880Z,94321.16
2019-04-29T16:26:39.476Z,94321.09
2019-04-29T16:29:13.329Z,94319.39
2019-04-29T16:31:40.060Z,94321.00
2019-04-29T16:34:09.503Z,94314.02
2019-04-29T16:36:43.666Z,94317.98
2019-04-29T16:39:10.112Z,94324.81
2019-04-29T16:41:58.032Z,94321.05
2019-04-29T16:44:35.711Z,94331.05
2019-04-29T16:46:55.762Z,94328.06
2019-04-29T16:49:25.242Z,94327.23
2019-04-29T16:51:55.964Z,94332.34
2019-04-29T16:54:28.375Z,94335.30
2019-04-29T16:56:56.629Z,94332.42
2019-04-29T16:59:26.078Z,94337.14
2019-04-29T17:01:55.519Z,94335.62
2019-04-29T17:04:24.962Z,94341.26
2019-04-29T17:07:11.875Z,94342.89
2019-04-29T17:09:51.323Z,94346.77
2019-04-29T17:12:21.210Z,94339.70
2019-04-29T17:15:04.173Z,94349.67
2019-04-29T17:17:29.120Z,94347.01
2019-04-29T17:19:58.810Z,94351.04
2019-04-29T17:22:28.292Z,94358.02
2019-04-29T17:24:57.714Z,94355.55
2019-04-29T17:27:58.059Z,94361.03
2019-04-29T17:30:49.966Z,94369.48
2019-04-29T17:33:27.775Z,94370.11
2019-04-29T17:35:55.254Z,94371.00
2019-04-29T17:38:24.702Z,94370.63
2019-04-29T17:40:54.123Z,94369.61
2019-04-29T17:43:42.924Z,94365.04
2019-04-29T17:46:25.871Z,94366.89
2019-04-29T17:49:02.600Z,94371.97
2019-04-29T17:51:33.963Z,94376.72
2019-04-29T17:54:05.354Z,94378.33
2019-04-29T17:56:50.037Z,94376.72
2019-04-29T17:59:45.861Z,94377.49
2019-04-29T18:02:39.972Z,94380.20
2019-04-29T18:05:20.381Z,94388.83
2019-04-29T18:08:05.241Z,94388.56
2019-04-29T18:10:45.788Z,94391.05
2019-04-29T18:13:17.274Z,94395.34
2019-04-29T18:16:00.086Z,94398.62
2019-04-29T18:18:28.137Z,94395.61
2019-04-29T18:21:22.667Z,94401.52
2019-04-29T18:24:17.811Z,94408.59
2019-04-29T18:27:00.257Z,94411.64
2019-04-29T18:29:29.676Z,94406.71
2019-04-29T18:32:00.578Z,94413.31
2019-04-29T18:34:33.784Z,94410.15
2019-04-29T18:37:01.636Z,94409.16
2019-04-29T18:39:32.078Z,94415.61
2019-04-29T18:42:03.120Z,94422.77
2019-04-29T18:44:32.777Z,94428.98
2019-04-29T18:47:02.301Z,94428.68
2019-04-29T18:49:31.742Z,94442.93
2019-04-29T18:52:02.124Z,94435.94
2019-04-29T18:54:32.372Z,94439.41
2019-04-29T18:57:01.974Z,94433.14
2019-04-29T18:59:33.401Z,94436.93
2019-04-29T19:02:07.710Z,94436.95
2019-04-29T19:04:58.713Z,94437.97
2019-04-29T19:07:31.857Z,94441.20
2019-04-29T19:09:59.405Z,94436.36
2019-04-29T19:12:29.097Z,94443.88
2019-04-29T19:15:04.508Z,94442.27
2019-04-29T19:17:34.009Z,94439.80
2019-04-29T19:20:01.004Z,94441.70
2019-04-29T19:22:30.444Z,94444.66
2019-04-29T19:24:59.872Z,94441.05
2019-04-29T19:27:30.590Z,94433.25
2019-04-29T19:30:00.655Z,94429.73
2019-04-29T19:32:30.198Z,94435.16
2019-04-29T19:34:59.633Z,94433.25
2019-04-29T19:37:32.365Z,94431.11
2019-04-29T19:40:00.307Z,94428.18
2019-04-29T19:42:35.524Z,94428.75
2019-04-29T19:45:00.912Z,94430.03
2019-04-29T19:47:30.357Z,94433.55
2019-04-29T19:49:59.815Z,94427.88
2019-04-29T19:52:31.784Z,94427.88
2019-04-29T19:55:01.656Z,94425.70
2019-04-29T19:57:31.606Z,94426.77
2019-04-29T20:00:01.500Z,94426.20
2019-04-29T20:02:31.731Z,94424.83
2019-04-29T20:05:11.220Z,94427.88
2019-04-29T20:07:43.426Z,94424.30
2019-04-29T20:10:13.245Z,94424.36
2019-04-29T20:12:46.164Z,94424.09
2019-04-29T20:15:16.445Z,94425.70
2019-04-29T20:18:10.785Z,94421.61
2019-04-29T20:20:46.890Z,94423.28
2019-04-29T20:23:24.831Z,94424.41
2019-04-29T20:25:48.488Z,94427.05
2019-04-29T20:28:21.199Z,94423.70
2019-04-29T20:30:50.407Z,94420.20
2019-04-29T20:33:20.911Z,94418.59
2019-04-29T20:35:50.612Z,94414.30
2019-04-29T20:38:20.254Z,94408.35
2019-04-29T20:40:49.872Z,94415.09
2019-04-29T20:43:20.954Z,94415.36
2019-04-29T20:45:50.596Z,94418.23
2019-04-29T20:48:20.171Z,94418.59
2019-04-29T20:50:52.824Z,94415.03
2019-04-29T20:53:33.502Z,94414.27
2019-04-29T20:56:11.704Z,94415.57
2019-04-29T20:58:33.250Z,94413.42
2019-04-29T21:01:08.846Z,94415.30
2019-04-29T21:03:35.740Z,94419.23
2019-04-29T21:06:06.315Z,94423.80
2019-04-29T21:08:35.987Z,94429.74
2019-04-29T21:11:16.160Z,94436.92
2019-04-29T21:13:57.281Z,94439.61
2019-04-29T21:16:32.779Z,94441.98
2019-04-29T21:19:08.834Z,94446.02
2019-04-29T21:21:41.916Z,94438.73
2019-04-29T21:24:13.866Z,94445.72
2019-04-29T21:26:44.561Z,94446.48
2019-04-29T21:29:15.805Z,94449.44
2019-04-29T21:31:42.651Z,94448.40
2019-04-29T21:34:13.111Z,94453.47
2019-04-29T21:37:01.699Z,94452.36
2019-04-29T21:39:37.889Z,94448.06
2019-04-29T21:42:35.488Z,94452.93
2019-04-29T21:45:08.263Z,94457.53
2019-04-29T21:47:42.717Z,94462.83
2019-04-29T21:50:05.856Z,94467.92
2019-04-29T21:52:35.308Z,94468.20
2019-04-29T21:55:05.222Z,94467.92
2019-04-29T21:57:34.717Z,94476.75
2019-04-29T22:00:05.683Z,94475.98
2019-04-29T22:02:35.836Z,94475.14
2019-04-29T22:05:09.617Z,94474.06
2019-04-29T22:07:39.871Z,94471.11
2019-04-29T22:10:08.661Z,94472.26
2019-04-29T22:12:38.190Z,94474.64
2019-04-29T22:15:07.780Z,94472.72
2019-04-29T22:17:37.295Z,94473.56
2019-04-29T22:20:08.353Z,94481.47
2019-04-29T22:22:38.516Z,94476.39
2019-04-29T22:25:10.009Z,94470.80
2019-04-29T22:27:41.189Z,94467.64
2019-04-29T22:30:16.810Z,94461.73
2019-04-29T22:32:42.021Z,94461.97
2019-04-29T22:35:11.427Z,94469.52
2019-04-29T22:37:41.121Z,94469.22
2019-04-29T22:40:10.544Z,94468.08
2019-04-29T22:42:45.980Z,94464.81
2019-04-29T22:45:16.152Z,94467.54
2019-04-29T22:47:45.902Z,94470.22
2019-04-29T22:50:15.312Z,94472.91
2019-04-29T22:52:45.339Z,94476.39
2019-04-29T22:55:15.590Z,94470.19
2019-04-29T22:57:46.902Z,94463.24
2019-04-29T23:00:18.550Z,94464.05
2019-04-29T23:02:47.988Z,94457.09
2019-04-29T23:05:17.576Z,94457.91
2019-04-29T23:07:47.009Z,94458.98
2019-04-29T23:10:19.872Z,94457.56
2019-04-29T23:12:49.261Z,94454.38
2019-04-29T23:15:22.475Z,94461.05
2019-04-29T23:17:50.832Z,94457.88
2019-04-29T23:20:42.223Z,94452.73
2019-04-29T23:23:16.736Z,94448.70
2019-04-29T23:25:49.212Z,94469.08
2019-04-29T23:28:22.450Z,94460.25
2019-04-29T23:30:52.123Z,94452.73
2019-04-29T23:33:22.889Z,94463.17
2019-04-29T23:35:52.327Z,94458.61
2019-04-29T23:38:21.749Z,94455.15
2019-04-29T23:40:54.657Z,94457.27
2019-04-29T23:43:25.328Z,94455.69
2019-04-29T23:45:56.983Z,94451.13
2019-04-29T23:48:29.049Z,94445.14
2019-04-29T23:50:58.146Z,94446.02
2019-04-29T23:53:26.861Z,94443.06
2019-04-29T23:56:00.128Z,94433.86
2019-04-29T23:59:05.507Z,94436.05
